KMKS

Berkeley County Airport

Moncks Corner, South Carolina, USA
METAR KMKS 191515Z AUTO 26006KT 230V300 7SM BKN015 28/24 A3003 RMK AO2
Observed Flight Rules
Aug-19 @ 15:15 UTC (23 minutes ago) Marginal Visual Flight Rules
Wind Visibility Clouds
260° at 6 knots 7 miles
  • Broken at 1,500' AGL
Temperatures Readings
Current 28°C / 82°F
Dewpoint 24°C / 75°F
Humidity 79%
Altimeter 30.03" Hg
Pressure 1017 hPa
Elevation 23
METAR KMKS 191515Z AUTO 26006KT 230V300 7SM BKN015 28/24 A3003 RMK AO2
Observed Flight Rules
Aug-19 @ 15:15 UTC
(23 minutes ago)
MVFR
Wind Visibility
260° at 6 knots 7 miles
Clouds
  • Broken at 1,500' AGL
Temperature Dewpoint
28°C / 82°F 24°C / 75°F
Humidity Altimeter Pressure
79% 30.03" Hg 1017 hPa